Airfield :
LOGIN :

Register | Disclaimer

   EN    FR    IT 

 










Legend :    VFR   Marginal VFR   IFR   Intensive IFR   Very Intensive IFR
Visi :
Ceiling :
>= 8 km
>= 3000ft
5 to 8 km
1000 to 3000 ft
1500m to 5 km
500 to 1000 ft
800 to 1500m
200 to 500 ft
< 800m
< 200 ft
Symbols :   Thunderstorms  Fog  Heavy snow  Heavy precipitations  Wind > 20 kt
SIGMETs :     Misc.  Thunderstorms  Icing  Turbulence  Mountain Waves  Volcanic Ashes







- Airport Elevation : 63 ft
- IATA code : BZM


EHWO - Woensdrecht Airbase

CURRENT METAR :
  • 160843Z AUTO 29006KT 240V320 9999 FEW021 SCT025 BKN043 03/02 Q1011 BLU

EXPIRED METARs :
  • 160826Z AUTO 28005KT 230V350 9999 FEW018 SCT022 BKN027 02/02 Q1011 WHT
  • 160755Z AUTO 26005KT 9999 FEW015CB SCT031 BKN038 02/01 Q1010 BLU
  • 160744Z AUTO 29004KT 9999 FEW015CB SCT023 BKN032 02/02 Q1010 WHT
  • 160731Z AUTO 29008G20KT 230V330 9999 -RA FEW015CB SCT032 BKN037 03/02 Q1010 BLU
  • 160716Z AUTO 26005KT 9999 FEW015CB SCT024 BKN038 01/01 Q1010 WHT
  • 160655Z AUTO 23002KT 9999 FEW100 01/01 Q1009 BLU
  • 160645Z AUTO 23002KT 9999 FEW015CB 02/02 Q1009 BLU
  • 160632Z AUTO VRB01KT 9999 FEW015CB SCT026 02/02 Q1009 BLU
  • 160625Z AUTO VRB02KT 9999 FEW015CB SCT021 BKN025 OVC028 03/02 Q1009 WHT
  • 160616Z AUTO 32005KT 250V360 8000 -RA FEW015CB SCT022 BKN025 03/02 Q1009 WHT
  • 160555Z AUTO 33005KT 270V010 9999 -RA FEW015CB SCT030 BKN034 03/02 Q1009 BLU

Expired Forecast.
No reported NOTAMs for that airfield.



MET'MAP, your aeronautical weather chart ! - Copyright ORBIFLY December 2007 - Disclaimer

ORBIFLY MET'MAP TEAM :

Programming & Development : Alexandra Zaïnal
Concept & Development : Baudouin d'Aumeries
Co-Development & Prog : Marc-Olivier Méhu
Technical & hardware support : Manuel Goepfert

Contact : metmap@orbifly.com




SOURCES & CREDITS :

   NOAA